CW4421 Weather Reports


Display with metric or nautical units.
time (UTC)temp
F
wind
direction
speed
MPH
gust
MPH
rain 1hr
in
rain 24hr
in
rain mn
in
humidity
%
barometer
mb
20240301011540 36 184 15.0 26.0 0.00 0.00 0.00 77 1020.3
20240301010035 37 188 14.0 23.0 0.00 0.00 0.00 73 1020.2
20240301004535 38 169 17.0 25.0 0.00 0.00 0.00 70 1020.3
20240301003051 38 192 17.0 27.0 0.00 0.00 0.00 68 1020.3
20240301001536 39 175 14.0 26.0 0.00 0.00 0.00 63 1020.2
20240301000035 39 188 19.0 27.0 0.00 0.00 0.00 61 1020.1
20240229234539 40 201 16.0 29.0 0.00 0.00 0.00 58 1020.0
20240229233030 40 200 16.0 25.0 0.00 0.00 0.00 53 1019.9
20240229231530 41 194 18.0 24.0 0.00 0.00 0.00 50 1020.3
20240229230030 41 184 16.0 28.0 0.00 0.00 0.00 47 1020.3
20240229224529 42 184 17.0 30.0 0.00 0.00 0.00 43 1020.3
20240229223028 43 200 18.0 28.0 0.00 0.00 0.00 35 1020.1
20240229221527 45 198 18.0 25.0 0.00 0.00 0.00 32 1020.2
20240229220028 45 188 17.0 25.0 0.00 0.00 0.00 32 1020.1
20240229214526 46 182 19.0 28.0 0.00 0.00 0.00 30 1020.3
20240229213026 46 194 19.0 31.0 0.00 0.00 0.00 27 1020.4
20240229211527 48 186 20.0 28.0 0.00 0.00 0.00 29 1020.3
20240229210028 49 184 16.0 25.0 0.00 0.00 0.00 32 1020.3
20240229204523 49 200 18.0 25.0 0.00 0.00 0.00 31 1020.5
20240229203024 49 204 19.0 27.0 0.00 0.00 0.00 29 1020.9
20240229201523 48 167 20.0 32.0 0.00 0.00 0.00 27 1021.2
20240229200022 50 179 22.0 31.0 0.00 0.00 0.00 27 1021.5
20240229194520 50 204 21.0 28.0 0.00 0.00 0.00 30 1021.5
20240229193019 51 200 17.0 29.0 0.00 0.00 0.00 30 1021.8
20240229191517 51 196 22.0 31.0 0.00 0.00 0.00 29 1022.2
20240229190016 50 185 22.0 30.0 0.00 0.00 0.00 29 1022.7
20240229184516 50 190 23.0 30.0 0.00 0.00 0.00 31 1023.3
20240229183021 50 202 21.0 27.0 0.00 0.00 0.00 33 1023.7
20240229181509 46 179 17.0 24.0 0.00 0.00 0.00 35 1023.9
20240229180008 45 198 18.0 27.0 0.00 0.00 0.00 34 1024.0
20240229174507 44 178 15.0 26.0 0.00 0.00 0.00 37 1024.2
20240229173007 44 156 18.0 29.0 0.00 0.00 0.00 35 1024.3
20240229171505 46 169 20.0 31.0 0.00 0.00 0.00 34 1024.2
20240229170002 45 183 21.0 28.0 0.00 0.00 0.00 36 1024.4
20240229164557 44 204 18.0 28.0 0.00 0.00 0.00 36 1024.5
20240229163055 43 192 16.0 25.0 0.00 0.00 0.00 39 1024.6
20240229161558 42 190 19.0 26.0 0.00 0.00 0.00 42 1024.8
20240229160049 41 184 18.0 23.0 0.00 0.00 0.00 46 1025.2
20240229154601 39 184 16.0 22.0 0.00 0.00 0.00 50 1025.3
20240229153043 37 184 11.0 20.0 0.00 0.00 0.00 56 1025.5
20240229151547 36 175 10.0 18.0 0.00 0.00 0.00 58 1025.8
20240229150036 34 180 12.0 18.0 0.00 0.00 0.00 59 1026.0
20240229144529 33 188 9.0 16.0 0.00 0.00 0.00 62 1026.1
20240229143037 31 184 10.0 19.0 0.00 0.00 0.00 65 1026.0
20240229141521 29 175 9.0 15.0 0.00 0.00 0.00 70 1026.0
20240229140018 27 166 9.0 11.0 0.00 0.00 0.00 73 1026.2
20240229134555 25 171 7.0 8.0 0.00 0.00 0.00 76 1026.4
20240229133017 24 180 5.0 7.0 0.00 0.00 0.00 77 1026.6
20240229131518 23 179 6.0 12.0 0.00 0.00 0.00 78 1026.6
20240229130017 23 181 6.0 8.0 0.00 0.00 0.00 77 1026.6
20240229124512 23 165 6.0 8.0 0.00 0.00 0.00 77 1026.6
20240229123009 24 159 7.0 9.0 0.00 0.00 0.00 75 1026.8
20240229121508 24 163 6.0 9.0 0.00 0.00 0.00 75 1026.8
20240229120011 24 161 5.0 8.0 0.00 0.00 0.00 74 1026.8
20240229114506 24 178 6.0 9.0 0.00 0.00 0.00 75 1027.1
20240229113000 25 185 5.0 8.0 0.00 0.00 0.00 72 1027.0
20240229111559 25 185 7.0 9.0 0.00 0.00 0.00 72 1027.1
20240229110057 26 181 6.0 9.0 0.00 0.00 0.00 71 1027.2
20240229104555 26 180 7.0 10.0 0.00 0.00 0.00 70 1027.3
20240229103109 26 181 8.0 12.0 0.00 0.00 0.00 70 1027.8
20240229101552 26 185 8.0 11.0 0.00 0.00 0.00 70 1027.8
20240229100051 27 186 8.0 11.0 0.00 0.00 0.00 70 1027.8
20240229094548 27 178 8.0 11.0 0.00 0.00 0.00 69 1027.8
20240229093100 27 186 8.0 11.0 0.00 0.00 0.00 68 1027.9
20240229091546 27 180 9.0 12.0 0.00 0.00 0.00 68 1028.2
20240229090043 27 190 9.0 12.0 0.00 0.00 0.00 68 1028.3
20240229084542 27 190 9.0 13.0 0.00 0.00 0.00 68 1028.4
20240229083045 28 183 9.0 13.0 0.00 0.00 0.00 67 1028.7
20240229081549 28 188 8.0 12.0 0.00 0.00 0.00 67 1029.0
20240229080040 28 192 9.0 13.0 0.00 0.00 0.00 66 1029.0
20240229074533 28 185 10.0 14.0 0.00 0.00 0.00 66 1029.0
20240229073032 28 189 10.0 13.0 0.00 0.00 0.00 65 1028.9
20240229071532 28 186 9.0 12.0 0.00 0.00 0.00 65 1028.9
20240229070026 28 191 8.0 11.0 0.00 0.00 0.00 65 1028.6
20240229064525 28 189 7.0 9.0 0.00 0.00 0.00 66 1028.5
20240229063021 28 186 6.0 10.0 0.00 0.00 0.00 65 1028.3
20240229061520 28 183 7.0 9.0 0.00 0.00 0.00 64 1028.3
20240229060018 28 185 7.0 9.0 0.00 0.00 0.00 64 1028.4
20240229054517 28 184 6.0 9.0 0.00 0.00 0.00 63 1028.5
20240229053017 29 181 6.0 9.0 0.00 0.00 0.00 61 1028.3
20240229051519 30 178 6.0 9.0 0.00 0.00 0.00 59 1028.1
20240229050027 30 171 6.0 9.0 0.00 0.00 0.00 60 1028.1
20240229044515 29 155 5.0 7.0 0.00 0.00 0.00 60 1028.2
20240229043015 30 155 5.0 8.0 0.00 0.00 0.00 59 1028.3
20240229041528 31 153 6.0 9.0 0.00 0.00 0.00 56 1028.1
20240229040021 31 171 5.0 9.0 0.00 0.00 0.00 56 1028.4
20240229034526 30 160 5.0 8.0 0.00 0.00 0.00 57 1028.5
20240229033013 31 157 6.0 8.0 0.00 0.00 0.00 57 1028.5
20240229031527 31 162 5.0 8.0 0.00 0.00 0.00 56 1028.6
20240229030013 31 161 5.0 6.0 0.00 0.00 0.00 56 1028.5
20240229024524 32 160 5.0 7.0 0.00 0.00 0.00 54 1028.6
20240229023016 32 161 6.0 8.0 0.00 0.00 0.00 53 1028.5
20240229021522 32 155 5.0 7.0 0.00 0.00 0.00 53 1028.6
20240229020010 32 154 4.0 7.0 0.00 0.00 0.00 52 1028.5
20240229014514 33 154 4.0 6.0 0.00 0.00 0.00 50 1028.1
20240229013010 33 154 4.0 7.0 0.00 0.00 0.00 48 1028.6